createdAt,value
2018-07-24T00:00:09.687Z,62.20
2018-07-24T00:02:38.746Z,62.01
2018-07-24T00:05:08.665Z,62.56
2018-07-24T00:07:38.179Z,62.75
2018-07-24T00:10:09.139Z,62.54
2018-07-24T00:12:38.435Z,62.58
2018-07-24T00:15:09.664Z,62.90
2018-07-24T00:17:39.175Z,63.05
2018-07-24T00:20:10.749Z,63.50
2018-07-24T00:22:39.953Z,63.22
2018-07-24T00:25:09.084Z,63.32
2018-07-24T00:27:38.176Z,63.57
2018-07-24T00:30:10.873Z,63.95
2018-07-24T00:32:39.941Z,64.20
2018-07-24T00:35:09.237Z,64.13
2018-07-24T00:37:38.683Z,64.21
2018-07-24T00:40:11.665Z,64.84
2018-07-24T00:42:41.204Z,64.64
2018-07-24T00:45:10.399Z,65.01
2018-07-24T00:47:39.545Z,65.04
2018-07-24T00:50:09.103Z,64.96
2018-07-24T00:52:38.502Z,65.23
2018-07-24T00:55:08.793Z,65.51
2018-07-24T00:57:38.435Z,65.66
2018-07-24T01:00:09.868Z,66.12
2018-07-24T01:02:39.123Z,65.98
2018-07-24T01:05:09.783Z,66.08
2018-07-24T01:07:39.646Z,66.05
2018-07-24T01:10:10.344Z,66.45
2018-07-24T01:12:40.139Z,66.51
2018-07-24T01:15:09.508Z,66.60
2018-07-24T01:17:38.584Z,66.79
2018-07-24T01:20:10.100Z,66.73
2018-07-24T01:22:39.426Z,66.80
2018-07-24T01:25:08.590Z,66.86
2018-07-24T01:27:37.797Z,66.73
2018-07-24T01:30:08.654Z,67.07
2018-07-24T01:32:38.249Z,67.10
2018-07-24T01:35:08.540Z,66.80
2018-07-24T01:37:38.476Z,67.15
2018-07-24T01:40:08.417Z,67.02
2018-07-24T01:42:37.530Z,67.41
2018-07-24T01:45:07.985Z,67.19
2018-07-24T01:47:37.325Z,67.32
2018-07-24T01:50:08.790Z,67.65
2018-07-24T01:52:38.187Z,67.46
2018-07-24T01:55:08.668Z,67.84
2018-07-24T01:57:38.331Z,68.14
2018-07-24T02:00:14.055Z,68.12
2018-07-24T02:02:44.053Z,68.32
2018-07-24T02:05:13.625Z,68.27
2018-07-24T02:07:43.379Z,68.37
2018-07-24T02:10:12.597Z,68.19
2018-07-24T02:12:41.681Z,68.33
2018-07-24T02:15:11.826Z,68.14
2018-07-24T02:17:41.306Z,68.21
2018-07-24T02:20:10.403Z,68.08
2018-07-24T02:22:39.860Z,67.94
2018-07-24T02:25:08.985Z,68.06
2018-07-24T02:27:38.484Z,67.65
2018-07-24T02:30:10.578Z,68.11
2018-07-24T02:32:39.816Z,67.89
2018-07-24T02:35:09.646Z,68.29
2018-07-24T02:37:38.820Z,68.40
2018-07-24T02:40:09.544Z,68.62
2018-07-24T02:42:38.611Z,68.77
2018-07-24T02:45:10.243Z,68.83
2018-07-24T02:47:39.354Z,68.72
2018-07-24T02:50:10.738Z,69.12
2018-07-24T02:52:39.804Z,69.16
2018-07-24T02:55:15.812Z,69.30
2018-07-24T02:57:44.885Z,69.12
2018-07-24T03:00:14.385Z,69.28
2018-07-24T03:02:43.671Z,69.33
2018-07-24T03:05:13.098Z,69.49
2018-07-24T03:07:42.172Z,69.63
2018-07-24T03:10:11.287Z,69.53
2018-07-24T03:12:41.995Z,69.78
2018-07-24T03:15:11.075Z,69.93
2018-07-24T03:17:40.814Z,69.88
2018-07-24T03:20:10.220Z,69.94
2018-07-24T03:22:39.298Z,70.29
2018-07-24T03:25:08.860Z,70.07
2018-07-24T03:27:37.936Z,70.42
2018-07-24T03:30:09.152Z,70.29
2018-07-24T03:32:38.242Z,70.38
2018-07-24T03:35:08.989Z,70.19
2018-07-24T03:37:38.051Z,70.38
2018-07-24T03:40:09.228Z,70.25
2018-07-24T03:42:38.309Z,70.04
2018-07-24T03:45:10.106Z,70.03
2018-07-24T03:47:39.169Z,70.07
2018-07-24T03:50:12.066Z,69.89
2018-07-24T03:52:41.158Z,69.74
2018-07-24T03:55:10.625Z,69.83
2018-07-24T03:57:39.738Z,69.63
2018-07-24T04:00:11.487Z,69.77
2018-07-24T04:02:40.564Z,69.51
2018-07-24T04:05:30.685Z,69.59
2018-07-24T04:08:07.966Z,69.60
2018-07-24T04:10:37.053Z,69.59
2018-07-24T04:13:08.647Z,69.45
2018-07-24T04:15:37.743Z,69.72
2018-07-24T04:18:08.648Z,69.79
2018-07-24T04:20:38.550Z,70.08
2018-07-24T04:23:09.514Z,69.99
2018-07-24T04:25:38.768Z,70.30
2018-07-24T04:28:08.522Z,70.30
2018-07-24T04:30:37.749Z,70.45
2018-07-24T04:33:08.702Z,70.44
2018-07-24T04:35:37.982Z,70.31
2018-07-24T04:38:08.646Z,70.52
2018-07-24T04:40:37.759Z,70.35
2018-07-24T04:43:31.815Z,70.21
2018-07-24T04:46:09.336Z,70.25
2018-07-24T04:48:39.271Z,70.57
2018-07-24T04:51:08.977Z,70.34
2018-07-24T04:53:39.105Z,70.44
2018-07-24T04:56:09.024Z,70.39
2018-07-24T04:58:38.131Z,70.29
2018-07-24T05:01:08.838Z,70.07
2018-07-24T05:03:38.103Z,69.78
2018-07-24T05:06:08.988Z,69.75
2018-07-24T05:08:38.290Z,69.46
2018-07-24T05:11:09.653Z,69.15
2018-07-24T05:13:39.228Z,68.97
2018-07-24T05:16:08.837Z,68.58
2018-07-24T05:18:38.110Z,68.70
2018-07-24T05:21:09.087Z,68.57
2018-07-24T05:23:38.304Z,68.51
2018-07-24T05:26:08.821Z,68.14
2018-07-24T05:28:38.472Z,68.10
2018-07-24T05:31:08.782Z,68.04
2018-07-24T05:33:37.942Z,67.96
2018-07-24T05:36:08.644Z,67.81
2018-07-24T05:38:37.727Z,67.78
2018-07-24T05:41:08.731Z,67.25
2018-07-24T05:43:37.814Z,67.78
2018-07-24T05:46:08.671Z,67.42
2018-07-24T05:48:40.652Z,67.32
2018-07-24T05:51:11.398Z,67.30
2018-07-24T05:53:43.143Z,66.62
2018-07-24T05:56:12.904Z,66.30
2018-07-24T05:58:43.402Z,65.58
2018-07-24T06:01:13.147Z,65.41
2018-07-24T06:03:42.230Z,65.34
2018-07-24T06:06:11.357Z,65.04
2018-07-24T06:08:41.040Z,64.56
2018-07-24T06:11:10.363Z,64.22
2018-07-24T06:13:39.417Z,63.93
2018-07-24T06:16:10.112Z,63.87
2018-07-24T06:18:39.913Z,63.64
2018-07-24T06:21:09.285Z,63.68
2018-07-24T06:23:38.597Z,62.79
2018-07-24T06:26:09.289Z,62.37
2018-07-24T06:28:38.928Z,62.46
2018-07-24T06:31:08.707Z,62.60
2018-07-24T06:33:38.341Z,61.83
2018-07-24T06:36:09.179Z,61.73
2018-07-24T06:38:38.410Z,61.39
2018-07-24T06:41:09.262Z,61.09
2018-07-24T06:43:38.605Z,60.60
2018-07-24T06:46:09.309Z,60.12
2018-07-24T06:48:38.648Z,60.17
2018-07-24T06:51:08.879Z,59.47
2018-07-24T06:53:39.288Z,59.15
2018-07-24T06:56:09.164Z,59.05
2018-07-24T06:58:38.236Z,58.53
2018-07-24T07:01:10.054Z,58.57
2018-07-24T07:03:39.117Z,58.17
2018-07-24T07:06:08.774Z,57.88
2018-07-24T07:08:38.058Z,57.19
2018-07-24T07:11:08.500Z,57.75
2018-07-24T07:13:37.791Z,57.76
2018-07-24T07:16:08.870Z,57.07
2018-07-24T07:18:37.948Z,57.11
2018-07-24T07:21:09.439Z,56.79
2018-07-24T07:23:39.010Z,56.33
2018-07-24T07:26:08.506Z,56.13
2018-07-24T07:28:38.206Z,55.80
2018-07-24T07:31:08.427Z,55.60
2018-07-24T07:33:37.528Z,55.86
2018-07-24T07:36:09.586Z,56.18
2018-07-24T07:38:39.053Z,54.44
2018-07-24T07:41:10.649Z,53.91
2018-07-24T07:43:39.934Z,53.67
2018-07-24T07:46:09.736Z,53.50
2018-07-24T07:48:39.856Z,53.06
2018-07-24T07:51:08.962Z,52.99
2018-07-24T07:53:38.205Z,52.95
2018-07-24T07:56:10.032Z,52.44
2018-07-24T07:58:39.191Z,51.88
2018-07-24T08:01:10.773Z,52.41
2018-07-24T08:03:40.105Z,51.60
2018-07-24T08:06:09.211Z,51.10
2018-07-24T08:08:38.677Z,49.55
2018-07-24T08:11:09.033Z,49.91
2018-07-24T08:13:38.623Z,50.14
2018-07-24T08:16:08.577Z,49.10
2018-07-24T08:18:37.648Z,48.63
2018-07-24T08:21:09.074Z,47.65
2018-07-24T08:23:38.168Z,45.99
2018-07-24T08:26:08.483Z,44.40
2018-07-24T08:28:37.334Z,44.27
2018-07-24T08:31:08.781Z,43.33
2018-07-24T08:33:38.353Z,43.85
2018-07-24T08:36:08.668Z,44.09
2018-07-24T08:38:38.646Z,44.40
2018-07-24T08:41:08.743Z,42.96
2018-07-24T08:43:37.822Z,42.86
2018-07-24T08:46:09.005Z,42.45
2018-07-24T08:48:38.122Z,42.50
2018-07-24T08:51:09.884Z,42.92
2018-07-24T08:53:39.334Z,41.20
2018-07-24T08:56:09.605Z,42.35
2018-07-24T08:58:38.736Z,41.86
2018-07-24T09:01:10.349Z,42.97
2018-07-24T09:03:39.489Z,42.31
2018-07-24T09:06:09.460Z,41.88
2018-07-24T09:08:38.509Z,40.56
2018-07-24T09:11:09.395Z,40.67
2018-07-24T09:13:39.078Z,40.57
2018-07-24T09:16:08.596Z,40.78
2018-07-24T09:18:38.318Z,40.21
2018-07-24T09:21:09.049Z,40.11
2018-07-24T09:23:38.579Z,39.54
2018-07-24T09:26:08.491Z,39.01
2018-07-24T09:28:37.790Z,39.13
2018-07-24T09:31:08.562Z,38.72
2018-07-24T09:33:38.069Z,39.23
2018-07-24T09:36:08.865Z,38.42
2018-07-24T09:38:37.938Z,37.97
2018-07-24T09:41:10.924Z,38.11
2018-07-24T09:43:40.028Z,38.31
2018-07-24T09:46:09.107Z,38.84
2018-07-24T09:48:38.535Z,38.19
2018-07-24T09:51:08.861Z,37.18
2018-07-24T09:53:41.435Z,37.19
2018-07-24T09:56:10.819Z,37.97
2018-07-24T09:58:39.894Z,37.40
2018-07-24T10:01:14.355Z,37.33
2018-07-24T10:03:43.437Z,37.40
2018-07-24T10:06:12.614Z,36.39
2018-07-24T10:08:42.462Z,35.63
2018-07-24T10:11:11.942Z,35.58
2018-07-24T10:13:41.027Z,35.91
2018-07-24T10:16:10.291Z,35.53
2018-07-24T10:18:40.337Z,34.99
2018-07-24T10:21:09.842Z,35.11
2018-07-24T10:23:39.024Z,34.50
2018-07-24T10:26:09.797Z,34.80
2018-07-24T10:28:38.920Z,35.08
2018-07-24T10:31:09.815Z,34.56
2018-07-24T10:33:38.896Z,34.53
2018-07-24T10:36:08.429Z,33.95
2018-07-24T10:38:37.922Z,34.25
2018-07-24T10:41:08.782Z,33.49
2018-07-24T10:43:37.952Z,32.78
2018-07-24T10:46:09.000Z,32.85
2018-07-24T10:48:38.091Z,32.58
2018-07-24T10:51:09.191Z,32.65
2018-07-24T10:53:38.298Z,32.21
2018-07-24T10:56:09.607Z,31.78
2018-07-24T10:58:38.711Z,32.13
2018-07-24T11:01:09.325Z,31.86
2018-07-24T11:03:38.835Z,32.46
2018-07-24T11:06:08.841Z,31.98
2018-07-24T11:08:37.896Z,31.67
2018-07-24T11:11:08.624Z,31.95
2018-07-24T11:13:37.780Z,31.39
2018-07-24T11:16:08.584Z,31.61
2018-07-24T11:18:37.922Z,31.29
2018-07-24T11:21:08.161Z,31.09
2018-07-24T11:23:37.234Z,29.84
2018-07-24T11:26:09.163Z,30.84
2018-07-24T11:28:38.239Z,31.01
2018-07-24T11:31:08.795Z,30.92
2018-07-24T11:33:38.100Z,30.67
2018-07-24T11:36:09.184Z,30.10
2018-07-24T11:38:38.796Z,29.88
2018-07-24T11:41:09.459Z,29.75
2018-07-24T11:43:38.519Z,29.13
2018-07-24T11:46:09.711Z,29.50
2018-07-24T11:48:38.763Z,29.35
2018-07-24T11:51:09.445Z,29.28
2018-07-24T11:53:38.547Z,29.28
2018-07-24T11:56:09.704Z,29.02
2018-07-24T11:58:38.771Z,27.68
2018-07-24T12:01:09.340Z,26.18
2018-07-24T12:03:38.600Z,24.63
2018-07-24T12:06:08.852Z,23.80
2018-07-24T12:08:38.130Z,23.07
2018-07-24T12:11:10.761Z,22.12
2018-07-24T12:13:40.002Z,22.03
2018-07-24T12:16:09.238Z,22.51
2018-07-24T12:18:38.315Z,22.72
2018-07-24T12:21:09.517Z,22.83
2018-07-24T12:23:38.603Z,22.91
2018-07-24T12:26:08.849Z,22.51
2018-07-24T12:28:38.167Z,22.14
2018-07-24T12:31:09.600Z,20.83
2018-07-24T12:33:38.826Z,20.34
2018-07-24T12:36:09.519Z,20.64
2018-07-24T12:38:38.944Z,20.44
2018-07-24T12:41:08.624Z,19.67
2018-07-24T12:43:37.805Z,19.60
2018-07-24T12:46:09.083Z,20.61
2018-07-24T12:48:39.060Z,19.89
2018-07-24T12:51:08.486Z,19.46
2018-07-24T12:53:37.923Z,19.57
2018-07-24T12:56:08.480Z,19.37
2018-07-24T12:58:38.270Z,19.10
2018-07-24T13:01:08.533Z,19.42
2018-07-24T13:03:39.859Z,19.47
2018-07-24T13:06:09.048Z,19.23
2018-07-24T13:08:38.086Z,18.97
2018-07-24T13:11:09.544Z,19.30
2018-07-24T13:13:38.635Z,19.05
2018-07-24T13:16:08.476Z,18.40
2018-07-24T13:18:38.087Z,18.94
2018-07-24T13:21:08.484Z,19.57
2018-07-24T13:23:37.859Z,19.26
2018-07-24T13:26:08.557Z,19.38
2018-07-24T13:28:38.365Z,18.82
2018-07-24T13:31:08.583Z,18.62
2018-07-24T13:33:37.937Z,19.08
2018-07-24T13:36:08.829Z,19.06
2018-07-24T13:38:38.217Z,18.62
2018-07-24T13:41:08.742Z,17.84
2018-07-24T13:43:37.970Z,17.50
2018-07-24T13:46:08.663Z,17.83
2018-07-24T13:48:37.970Z,17.41
2018-07-24T13:51:09.131Z,17.83
2018-07-24T13:53:38.648Z,17.85
2018-07-24T13:56:08.537Z,17.80
2018-07-24T13:58:40.839Z,17.09
2018-07-24T14:01:09.954Z,16.72
2018-07-24T14:03:39.454Z,17.24
2018-07-24T14:06:09.581Z,17.46
2018-07-24T14:08:39.699Z,17.35
2018-07-24T14:11:08.998Z,18.29
2018-07-24T14:13:38.247Z,18.59
2018-07-24T14:16:08.431Z,18.79
2018-07-24T14:18:37.591Z,18.49
2018-07-24T14:21:09.662Z,17.92
2018-07-24T14:23:38.709Z,17.85
2018-07-24T14:26:08.891Z,17.69
2018-07-24T14:28:39.938Z,17.48
2018-07-24T14:31:09.227Z,16.76
2018-07-24T14:33:38.261Z,16.95
2018-07-24T14:36:09.338Z,17.74
2018-07-24T14:38:38.438Z,18.33
2018-07-24T14:41:08.682Z,18.85
2018-07-24T14:43:37.948Z,18.24
2018-07-24T14:46:08.597Z,17.70
2018-07-24T14:48:37.656Z,17.94
2018-07-24T14:51:09.326Z,18.09
2018-07-24T14:53:38.438Z,18.14
2018-07-24T14:56:08.690Z,18.53
2018-07-24T14:58:37.964Z,18.28
2018-07-24T15:01:09.574Z,18.66
2018-07-24T15:03:39.125Z,18.13
2018-07-24T15:06:15.173Z,18.26
2018-07-24T15:08:44.241Z,18.18
2018-07-24T15:11:14.724Z,17.66
2018-07-24T15:13:43.789Z,17.63
2018-07-24T15:16:13.115Z,17.32
2018-07-24T15:18:42.398Z,17.72
2018-07-24T15:21:11.757Z,17.54
2018-07-24T15:23:40.819Z,17.28
2018-07-24T15:26:10.301Z,17.77
2018-07-24T15:28:40.080Z,17.07
2018-07-24T15:31:09.500Z,17.44
2018-07-24T15:33:38.571Z,18.05
2018-07-24T15:36:09.532Z,18.55
2018-07-24T15:38:38.612Z,18.84
2018-07-24T15:41:08.528Z,19.40
2018-07-24T15:43:37.742Z,19.68
2018-07-24T15:46:09.173Z,19.94
2018-07-24T15:48:38.241Z,19.91
2018-07-24T15:51:08.511Z,20.16
2018-07-24T15:53:37.719Z,20.00
2018-07-24T15:56:08.749Z,20.13
2018-07-24T15:58:38.261Z,20.64
2018-07-24T16:01:08.646Z,20.78
2018-07-24T16:03:44.356Z,20.63
2018-07-24T16:06:13.822Z,21.14
2018-07-24T16:08:43.102Z,21.11
2018-07-24T16:11:12.297Z,21.23
2018-07-24T16:13:41.366Z,22.13
2018-07-24T16:16:10.628Z,22.07
2018-07-24T16:18:39.722Z,22.00
2018-07-24T16:21:08.859Z,21.89
2018-07-24T16:23:38.646Z,22.12
2018-07-24T16:26:08.580Z,21.91
2018-07-24T16:28:37.662Z,22.46
2018-07-24T16:31:08.816Z,22.20
2018-07-24T16:33:37.875Z,22.16
2018-07-24T16:36:09.849Z,22.57
2018-07-24T16:38:38.914Z,22.51
2018-07-24T16:41:08.631Z,22.24
2018-07-24T16:43:37.960Z,22.33
2018-07-24T16:46:11.419Z,22.40
2018-07-24T16:48:41.057Z,22.75
2018-07-24T16:51:10.139Z,22.37
2018-07-24T16:53:39.230Z,22.84
2018-07-24T16:56:08.812Z,23.08
2018-07-24T16:58:37.851Z,22.52
2018-07-24T17:01:09.103Z,22.73
2018-07-24T17:03:38.167Z,23.09
2018-07-24T17:06:10.038Z,23.49
2018-07-24T17:08:39.812Z,23.31
2018-07-24T17:11:09.032Z,23.47
2018-07-24T17:13:38.164Z,23.52
2018-07-24T17:16:09.768Z,23.26
2018-07-24T17:18:38.995Z,24.32
2018-07-24T17:21:09.730Z,23.47
2018-07-24T17:23:39.323Z,23.69
2018-07-24T17:26:08.710Z,24.35
2018-07-24T17:28:37.849Z,24.43
2018-07-24T17:31:09.270Z,24.12
2018-07-24T17:33:38.409Z,24.30
2018-07-24T17:36:08.867Z,24.94
2018-07-24T17:38:38.291Z,24.77
2018-07-24T17:41:09.032Z,24.75
2018-07-24T17:43:38.199Z,24.52
2018-07-24T17:46:09.763Z,23.62
2018-07-24T17:48:39.505Z,23.54
2018-07-24T17:51:08.642Z,23.89
2018-07-24T17:53:37.996Z,23.85
2018-07-24T17:56:09.166Z,24.01
2018-07-24T17:58:38.243Z,24.06
2018-07-24T18:01:08.655Z,24.39
2018-07-24T18:03:37.722Z,23.94
2018-07-24T18:06:08.513Z,27.07
2018-07-24T18:08:37.866Z,29.27
2018-07-24T18:11:08.634Z,30.36
2018-07-24T18:13:37.847Z,30.61
2018-07-24T18:16:08.792Z,27.67
2018-07-24T18:18:38.010Z,31.32
2018-07-24T18:21:08.717Z,30.99
2018-07-24T18:23:37.805Z,31.73
2018-07-24T18:26:09.282Z,30.44
2018-07-24T18:28:38.683Z,31.26
2018-07-24T18:31:09.070Z,31.63
2018-07-24T18:33:38.168Z,33.31
2018-07-24T18:36:08.648Z,33.51
2018-07-24T18:38:38.254Z,31.27
2018-07-24T18:41:11.380Z,33.95
2018-07-24T18:43:40.509Z,32.56
2018-07-24T18:46:09.834Z,31.16
2018-07-24T18:48:39.770Z,33.52
2018-07-24T18:51:09.151Z,33.37
2018-07-24T18:53:38.636Z,31.05
2018-07-24T18:56:09.275Z,33.83
2018-07-24T18:58:39.058Z,35.71
2018-07-24T19:01:10.921Z,34.90
2018-07-24T19:03:41.271Z,33.88
2018-07-24T19:06:10.939Z,31.17
2018-07-24T19:08:40.883Z,31.41
2018-07-24T19:11:10.498Z,33.60
2018-07-24T19:13:40.382Z,32.08
2018-07-24T19:16:09.769Z,34.29
2018-07-24T19:18:39.255Z,33.19
2018-07-24T19:21:09.242Z,32.22
2018-07-24T19:23:38.817Z,34.59
2018-07-24T19:26:09.154Z,35.34
2018-07-24T19:28:38.991Z,36.46
2018-07-24T19:31:09.592Z,36.21
2018-07-24T19:33:39.510Z,35.65
2018-07-24T19:36:09.806Z,33.49
2018-07-24T19:38:39.867Z,36.25
2018-07-24T19:41:09.660Z,36.56
2018-07-24T19:43:40.311Z,35.69
2018-07-24T19:46:10.010Z,35.09
2018-07-24T19:48:39.337Z,36.36
2018-07-24T19:51:08.979Z,36.08
2018-07-24T19:53:38.520Z,35.75
2018-07-24T19:56:09.463Z,34.57
2018-07-24T19:58:38.943Z,35.80
2018-07-24T20:01:09.020Z,35.49
2018-07-24T20:03:39.004Z,35.82
2018-07-24T20:06:09.249Z,36.43
2018-07-24T20:08:38.806Z,37.82
2018-07-24T20:11:08.992Z,37.24
2018-07-24T20:13:39.383Z,38.01
2018-07-24T20:16:08.552Z,35.83
2018-07-24T20:18:37.795Z,37.16
2018-07-24T20:21:09.843Z,37.41
2018-07-24T20:23:39.738Z,38.24
2018-07-24T20:26:09.011Z,39.06
2018-07-24T20:28:38.119Z,38.59
2018-07-24T20:31:08.994Z,38.06
2018-07-24T20:33:38.083Z,38.40
2018-07-24T20:36:08.999Z,38.95
2018-07-24T20:38:38.732Z,38.72
2018-07-24T20:41:09.809Z,39.45
2018-07-24T20:43:41.167Z,39.39
2018-07-24T20:46:10.334Z,38.98
2018-07-24T20:48:39.932Z,38.68
2018-07-24T20:51:15.841Z,38.74
2018-07-24T20:53:45.372Z,38.16
2018-07-24T20:56:14.541Z,38.20
2018-07-24T20:58:44.065Z,38.43
2018-07-24T21:01:13.444Z,39.95
2018-07-24T21:03:42.526Z,39.95
2018-07-24T21:06:12.224Z,41.02
2018-07-24T21:08:41.411Z,41.71
2018-07-24T21:11:10.511Z,40.23
2018-07-24T21:13:39.866Z,38.32
2018-07-24T21:16:09.118Z,38.42
2018-07-24T21:18:38.199Z,38.39
2018-07-24T21:21:09.096Z,37.65
2018-07-24T21:23:38.165Z,37.66
2018-07-24T21:26:09.755Z,37.90
2018-07-24T21:28:39.414Z,38.57
2018-07-24T21:31:08.486Z,38.16
2018-07-24T21:33:37.597Z,38.41
2018-07-24T21:36:08.847Z,37.97
2018-07-24T21:38:38.272Z,38.29
2018-07-24T21:41:09.455Z,38.01
2018-07-24T21:43:38.976Z,38.92
2018-07-24T21:46:08.595Z,38.82
2018-07-24T21:48:38.042Z,38.52
2018-07-24T21:51:08.805Z,38.36
2018-07-24T21:53:37.847Z,38.95
2018-07-24T21:56:08.940Z,38.97
2018-07-24T21:58:38.703Z,39.44
2018-07-24T22:01:12.798Z,40.74
2018-07-24T22:03:42.442Z,41.09
2018-07-24T22:06:11.670Z,41.04
2018-07-24T22:08:41.047Z,41.75
2018-07-24T22:11:10.093Z,42.38
2018-07-24T22:13:39.185Z,43.63
2018-07-24T22:16:12.147Z,43.75
2018-07-24T22:18:41.261Z,43.77
2018-07-24T22:21:10.396Z,44.21
2018-07-24T22:23:39.932Z,44.16
2018-07-24T22:26:09.079Z,44.86
2018-07-24T22:28:38.308Z,45.71
2018-07-24T22:31:09.680Z,45.52
2018-07-24T22:33:38.826Z,46.24
2018-07-24T22:36:09.545Z,46.00
2018-07-24T22:38:39.126Z,46.05
2018-07-24T22:41:09.903Z,46.99
2018-07-24T22:43:39.330Z,47.72
2018-07-24T22:46:09.745Z,47.85
2018-07-24T22:48:39.077Z,48.20
2018-07-24T22:51:08.771Z,49.10
2018-07-24T22:53:38.130Z,48.81
2018-07-24T22:56:09.035Z,49.69
2018-07-24T22:58:38.107Z,49.83
2018-07-24T23:01:09.332Z,50.49
2018-07-24T23:03:38.435Z,50.66
2018-07-24T23:06:11.364Z,51.23
2018-07-24T23:08:40.456Z,51.32
2018-07-24T23:11:09.538Z,50.83
2018-07-24T23:13:39.339Z,51.46
2018-07-24T23:16:08.399Z,52.33
2018-07-24T23:18:37.478Z,52.28
2018-07-24T23:21:09.255Z,52.75
2018-07-24T23:23:38.320Z,52.87
2018-07-24T23:26:08.710Z,52.79
2018-07-24T23:28:37.767Z,53.40
2018-07-24T23:31:09.174Z,53.46
2018-07-24T23:33:38.265Z,53.83
2018-07-24T23:36:08.904Z,54.05
2018-07-24T23:38:38.636Z,54.66
2018-07-24T23:41:09.439Z,54.48
2018-07-24T23:43:38.748Z,54.32
2018-07-24T23:46:08.571Z,54.14
2018-07-24T23:48:38.140Z,54.91
2018-07-24T23:51:09.147Z,55.54
2018-07-24T23:53:39.309Z,55.37
2018-07-24T23:56:08.968Z,55.37
2018-07-24T23:58:38.590Z,55.46
